sensor_id;sensor_type;location;lat;lon;timestamp;pressure;altitude;pressure_sealevel;temperature;humidity
48527;BME280;34317;51.660;5.824;2023-02-10T00:01:20;103500.53;;;5.86;53.65
48527;BME280;34317;51.660;5.824;2023-02-10T00:03:48;103496.97;;;5.84;53.58
48527;BME280;34317;51.660;5.824;2023-02-10T00:06:17;103503.09;;;5.83;54.00
48527;BME280;34317;51.660;5.824;2023-02-10T00:08:49;103491.59;;;5.78;54.02
48527;BME280;34317;51.660;5.824;2023-02-10T00:11:17;103499.44;;;5.76;53.81
48527;BME280;34317;51.660;5.824;2023-02-10T00:13:45;103495.03;;;5.74;54.23
48527;BME280;34317;51.660;5.824;2023-02-10T00:16:14;103503.75;;;5.71;54.18
48527;BME280;34317;51.660;5.824;2023-02-10T00:18:42;103505.47;;;5.71;54.28
48527;BME280;34317;51.660;5.824;2023-02-10T00:21:12;103503.72;;;5.70;54.04
48527;BME280;34317;51.660;5.824;2023-02-10T00:23:40;103512.47;;;5.69;53.97
48527;BME280;34317;51.660;5.824;2023-02-10T00:26:11;103508.91;;;5.66;54.08
48527;BME280;34317;51.660;5.824;2023-02-10T00:28:42;103512.41;;;5.65;54.20
48527;BME280;34317;51.660;5.824;2023-02-10T00:31:14;103514.13;;;5.63;54.24
48527;BME280;34317;51.660;5.824;2023-02-10T00:33:41;103507.09;;;5.62;54.33
48527;BME280;34317;51.660;5.824;2023-02-10T00:36:10;103514.94;;;5.61;54.33
48527;BME280;34317;51.660;5.824;2023-02-10T00:38:40;103519.31;;;5.60;54.43
48527;BME280;34317;51.660;5.824;2023-02-10T00:41:16;103515.78;;;5.58;54.47
48527;BME280;34317;51.660;5.824;2023-02-10T00:43:44;103517.50;;;5.56;54.52
48527;BME280;34317;51.660;5.824;2023-02-10T00:46:12;103522.75;;;5.56;54.40
48527;BME280;34317;51.660;5.824;2023-02-10T00:48:42;103522.69;;;5.53;54.31
48527;BME280;34317;51.660;5.824;2023-02-10T00:51:11;103519.16;;;5.51;54.66
48527;BME280;34317;51.660;5.824;2023-02-10T00:53:40;103517.41;;;5.50;54.47
48527;BME280;34317;51.660;5.824;2023-02-10T00:56:08;103522.59;;;5.47;54.77
48527;BME280;34317;51.660;5.824;2023-02-10T00:58:36;103516.41;;;5.45;54.60
48527;BME280;34317;51.660;5.824;2023-02-10T01:01:04;103526.00;;;5.43;54.53
48527;BME280;34317;51.660;5.824;2023-02-10T01:03:32;103526.00;;;5.43;54.64
48527;BME280;34317;51.660;5.824;2023-02-10T01:06:00;103523.34;;;5.41;55.04
48527;BME280;34317;51.660;5.824;2023-02-10T01:08:28;103526.81;;;5.40;54.88
48527;BME280;34317;51.660;5.824;2023-02-10T01:11:02;103525.94;;;5.40;55.12
48527;BME280;34317;51.660;5.824;2023-02-10T01:13:31;103530.28;;;5.38;55.06
48527;BME280;34317;51.660;5.824;2023-02-10T01:16:04;103529.38;;;5.36;54.85
48527;BME280;34317;51.660;5.824;2023-02-10T01:18:32;103543.34;;;5.35;54.92
48527;BME280;34317;51.660;5.824;2023-02-10T01:21:08;103533.66;;;5.32;55.37
48527;BME280;34317;51.660;5.824;2023-02-10T01:23:36;103536.25;;;5.31;55.27
48527;BME280;34317;51.660;5.824;2023-02-10T01:26:12;103546.78;;;5.31;55.11
48527;BME280;34317;51.660;5.824;2023-02-10T01:28:41;103552.03;;;5.31;55.45
48527;BME280;34317;51.660;5.824;2023-02-10T01:31:14;103545.00;;;5.30;55.55
48527;BME280;34317;51.660;5.824;2023-02-10T01:33:42;103546.72;;;5.28;55.37
48527;BME280;34317;51.660;5.824;2023-02-10T01:36:13;103544.94;;;5.26;55.56
48527;BME280;34317;51.660;5.824;2023-02-10T01:38:41;103543.19;;;5.25;55.38
48527;BME280;34317;51.660;5.824;2023-02-10T01:41:09;103539.59;;;5.23;55.69
48527;BME280;34317;51.660;5.824;2023-02-10T01:46:28;103537.81;;;5.21;55.59
48527;BME280;34317;51.660;5.824;2023-02-10T01:48:57;103546.56;;;5.21;55.60
48527;BME280;34317;51.660;5.824;2023-02-10T01:51:37;103543.03;;;5.19;55.68
48527;BME280;34317;51.660;5.824;2023-02-10T01:54:05;103536.03;;;5.18;55.91
48527;BME280;34317;51.660;5.824;2023-02-10T01:56:36;103538.66;;;5.18;55.86
48527;BME280;34317;51.660;5.824;2023-02-10T01:59:06;103534.22;;;5.17;56.08
48527;BME280;34317;51.660;5.824;2023-02-10T02:01:34;103535.09;;;5.16;56.12
48527;BME280;34317;51.660;5.824;2023-02-10T02:04:01;103537.75;;;5.16;55.85
48527;BME280;34317;51.660;5.824;2023-02-10T02:06:30;103528.06;;;5.15;55.88
48527;BME280;34317;51.660;5.824;2023-02-10T02:08:58;103528.94;;;5.16;55.85
48527;BME280;34317;51.660;5.824;2023-02-10T02:17:08;103520.19;;;5.15;56.16
48527;BME280;34317;51.660;5.824;2023-02-10T02:33:46;103534.13;;;5.11;56.06
48527;BME280;34317;51.660;5.824;2023-02-10T02:36:22;103530.56;;;5.09;56.24
48527;BME280;34317;51.660;5.824;2023-02-10T02:38:50;103535.81;;;5.09;56.15
48527;BME280;34317;51.660;5.824;2023-02-10T02:41:23;103537.56;;;5.09;56.17
48527;BME280;34317;51.660;5.824;2023-02-10T02:43:51;103540.22;;;5.09;56.12
48527;BME280;34317;51.660;5.824;2023-02-10T02:46:26;103532.28;;;5.07;56.13
48527;BME280;34317;51.660;5.824;2023-02-10T02:54:25;103528.75;;;5.05;56.35
48527;BME280;34317;51.660;5.824;2023-02-10T02:57:11;103526.13;;;5.05;56.53
48527;BME280;34317;51.660;5.824;2023-02-10T02:59:45;103533.09;;;5.04;56.13
48527;BME280;34317;51.660;5.824;2023-02-10T03:02:17;103534.00;;;5.05;56.38
48527;BME280;34317;51.660;5.824;2023-02-10T03:04:48;103534.00;;;5.05;56.13
48527;BME280;34317;51.660;5.824;2023-02-10T03:07:15;103532.22;;;5.04;56.24
48527;BME280;34317;51.660;5.824;2023-02-10T03:09:43;103540.97;;;5.03;56.26
48527;BME280;34317;51.660;5.824;2023-02-10T03:12:11;103546.22;;;5.03;56.33
48527;BME280;34317;51.660;5.824;2023-02-10T03:14:39;103551.47;;;5.03;56.71
48527;BME280;34317;51.660;5.824;2023-02-10T03:17:06;103556.72;;;5.03;56.31
48527;BME280;34317;51.660;5.824;2023-02-10T03:19:34;103563.66;;;5.01;56.57
48527;BME280;34317;51.660;5.824;2023-02-10T03:22:02;103560.13;;;5.00;56.55
48527;BME280;34317;51.660;5.824;2023-02-10T03:24:29;103566.25;;;4.99;56.32
48527;BME280;34317;51.660;5.824;2023-02-10T03:26:56;103563.59;;;4.98;56.38
48527;BME280;34317;51.660;5.824;2023-02-10T03:29:23;103575.81;;;4.96;56.35
48527;BME280;34317;51.660;5.824;2023-02-10T03:31:51;103569.66;;;4.95;56.55
48527;BME280;34317;51.660;5.824;2023-02-10T03:34:18;103570.47;;;4.93;56.31
48527;BME280;34317;51.660;5.824;2023-02-10T03:36:46;103572.19;;;4.91;56.59
48527;BME280;34317;51.660;5.824;2023-02-10T03:39:13;103569.47;;;4.87;56.66
48527;BME280;34317;51.660;5.824;2023-02-10T03:41:40;103567.72;;;4.86;56.61
48527;BME280;34317;51.660;5.824;2023-02-10T03:44:08;103571.19;;;4.85;56.91
48527;BME280;34317;51.660;5.824;2023-02-10T03:46:35;103575.53;;;4.83;56.39
48527;BME280;34317;51.660;5.824;2023-02-10T03:49:04;103577.22;;;4.81;56.90
48527;BME280;34317;51.660;5.824;2023-02-10T03:51:32;103575.47;;;4.80;56.32
48527;BME280;34317;51.660;5.824;2023-02-10T03:53:59;103573.69;;;4.79;56.47
48527;BME280;34317;51.660;5.824;2023-02-10T03:56:26;103577.13;;;4.78;56.54
48527;BME280;34317;51.660;5.824;2023-02-10T03:58:53;103564.88;;;4.77;56.51
48527;BME280;34317;51.660;5.824;2023-02-10T04:01:21;103569.25;;;4.77;56.61
48527;BME280;34317;51.660;5.824;2023-02-10T04:03:48;103566.59;;;4.75;56.46
48527;BME280;34317;51.660;5.824;2023-02-10T04:06:15;103571.84;;;4.75;56.83
48527;BME280;34317;51.660;5.824;2023-02-10T04:08:42;103568.28;;;4.73;57.03
48527;BME280;34317;51.660;5.824;2023-02-10T04:11:10;103564.81;;;4.74;56.76
48527;BME280;34317;51.660;5.824;2023-02-10T04:13:39;103567.38;;;4.73;56.85
48527;BME280;34317;51.660;5.824;2023-02-10T04:16:08;103566.50;;;4.72;56.97
48527;BME280;34317;51.660;5.824;2023-02-10T04:18:37;103561.25;;;4.72;57.06
48527;BME280;34317;51.660;5.824;2023-02-10T04:21:07;103564.75;;;4.71;56.88
48527;BME280;34317;51.660;5.824;2023-02-10T04:23:35;103562.97;;;4.70;56.75
48527;BME280;34317;51.660;5.824;2023-02-10T04:26:03;103562.09;;;4.70;56.77
48527;BME280;34317;51.660;5.824;2023-02-10T04:28:30;103571.72;;;4.69;56.87
48527;BME280;34317;51.660;5.824;2023-02-10T04:30:59;103564.66;;;4.68;56.84
48527;BME280;34317;51.660;5.824;2023-02-10T04:33:27;103564.66;;;4.68;57.11
48527;BME280;34317;51.660;5.824;2023-02-10T04:35:55;103573.38;;;4.67;57.05
48527;BME280;34317;51.660;5.824;2023-02-10T04:38:23;103571.63;;;4.66;56.91
48527;BME280;34317;51.660;5.824;2023-02-10T04:40:50;103568.06;;;4.64;56.86
48527;BME280;34317;51.660;5.824;2023-02-10T04:43:18;103560.19;;;4.64;57.20
48527;BME280;34317;51.660;5.824;2023-02-10T04:45:46;103558.41;;;4.63;56.91
48527;BME280;34317;51.660;5.824;2023-02-10T04:48:13;103566.28;;;4.63;56.95
48527;BME280;34317;51.660;5.824;2023-02-10T04:50:41;103560.13;;;4.61;57.08
48527;BME280;34317;51.660;5.824;2023-02-10T04:53:09;103571.47;;;4.60;57.10
48527;BME280;34317;51.660;5.824;2023-02-10T04:55:36;103574.94;;;4.59;57.01
48527;BME280;34317;51.660;5.824;2023-02-10T04:58:04;103581.91;;;4.57;57.28
48527;BME280;34317;51.660;5.824;2023-02-10T05:00:31;103576.66;;;4.57;57.10
48527;BME280;34317;51.660;5.824;2023-02-10T05:02:58;103574.84;;;4.56;56.99
48527;BME280;34317;51.660;5.824;2023-02-10T05:05:26;103580.09;;;4.56;56.98
48527;BME280;34317;51.660;5.824;2023-02-10T05:07:54;103573.09;;;4.55;57.06
48527;BME280;34317;51.660;5.824;2023-02-10T05:10:22;103587.06;;;4.54;56.99
48527;BME280;34317;51.660;5.824;2023-02-10T05:12:49;103582.69;;;4.53;57.07
48527;BME280;34317;51.660;5.824;2023-02-10T05:15:17;103590.56;;;4.53;56.98
48527;BME280;34317;51.660;5.824;2023-02-10T05:17:44;103596.63;;;4.52;57.35
48527;BME280;34317;51.660;5.824;2023-02-10T05:20:11;103598.38;;;4.51;57.29
48527;BME280;34317;51.660;5.824;2023-02-10T05:22:39;103600.13;;;4.51;57.31
48527;BME280;34317;51.660;5.824;2023-02-10T05:25:08;103600.97;;;4.49;57.03
48527;BME280;34317;51.660;5.824;2023-02-10T05:27:35;103597.41;;;4.47;57.44
48527;BME280;34317;51.660;5.824;2023-02-10T05:30:04;103595.66;;;4.46;57.23
48527;BME280;34317;51.660;5.824;2023-02-10T05:32:33;103597.31;;;4.43;57.37
48527;BME280;34317;51.660;5.824;2023-02-10T05:35:00;103598.16;;;4.42;57.29
48527;BME280;34317;51.660;5.824;2023-02-10T05:37:27;103602.53;;;4.41;57.29
48527;BME280;34317;51.660;5.824;2023-02-10T05:39:55;103598.97;;;4.39;57.56
48527;BME280;34317;51.660;5.824;2023-02-10T05:42:22;103601.56;;;4.38;57.46
48527;BME280;34317;51.660;5.824;2023-02-10T05:44:49;103598.06;;;4.39;57.62
48527;BME280;34317;51.660;5.824;2023-02-10T05:47:17;103601.59;;;4.39;57.85
48527;BME280;34317;51.660;5.824;2023-02-10T05:49:45;103595.47;;;4.40;57.86
48527;BME280;34317;51.660;5.824;2023-02-10T05:52:12;103599.91;;;4.41;57.75
48527;BME280;34317;51.660;5.824;2023-02-10T05:54:39;103604.28;;;4.42;57.81
48527;BME280;34317;51.660;5.824;2023-02-10T05:57:07;103600.81;;;4.43;58.06
48527;BME280;34317;51.660;5.824;2023-02-10T05:59:34;103602.56;;;4.44;58.05
48527;BME280;34317;51.660;5.824;2023-02-10T06:02:02;103600.91;;;4.46;58.29
48527;BME280;34317;51.660;5.824;2023-02-10T06:04:30;103601.84;;;4.48;58.40
48527;BME280;34317;51.660;5.824;2023-02-10T06:06:57;103601.06;;;4.53;58.36
48527;BME280;34317;51.660;5.824;2023-02-10T06:09:25;103604.59;;;4.55;58.25
48527;BME280;34317;51.660;5.824;2023-02-10T06:11:53;103611.66;;;4.57;58.57
48527;BME280;34317;51.660;5.824;2023-02-10T06:14:20;103607.31;;;4.59;58.36
48527;BME280;34317;51.660;5.824;2023-02-10T06:16:48;103603.88;;;4.60;58.58
48527;BME280;34317;51.660;5.824;2023-02-10T06:19:15;103597.78;;;4.63;58.28
48527;BME280;34317;51.660;5.824;2023-02-10T06:21:45;103597.00;;;4.65;58.63
48527;BME280;34317;51.660;5.824;2023-02-10T06:24:12;103597.00;;;4.67;58.66
48527;BME280;34317;51.660;5.824;2023-02-10T06:26:39;103603.22;;;4.71;58.59
48527;BME280;34317;51.660;5.824;2023-02-10T06:29:07;103594.56;;;4.73;58.66
48527;BME280;34317;51.660;5.824;2023-02-10T06:31:34;103588.50;;;4.77;58.67
48527;BME280;34317;51.660;5.824;2023-02-10T06:34:02;103591.22;;;4.80;58.94
48527;BME280;34317;51.660;5.824;2023-02-10T06:36:29;103597.41;;;4.84;58.83
48527;BME280;34317;51.660;5.824;2023-02-10T06:38:56;103589.56;;;4.85;58.70
48527;BME280;34317;51.660;5.824;2023-02-10T06:41:25;103594.91;;;4.88;59.13
48527;BME280;34317;51.660;5.824;2023-02-10T06:43:52;103597.59;;;4.92;59.25
48527;BME280;34317;51.660;5.824;2023-02-10T06:46:19;103593.28;;;4.94;58.90
48527;BME280;34317;51.660;5.824;2023-02-10T06:48:46;103593.31;;;4.97;58.89
48527;BME280;34317;51.660;5.824;2023-02-10T06:51:14;103595.16;;;5.01;59.22
48527;BME280;34317;51.660;5.824;2023-02-10T06:53:41;103597.88;;;5.04;59.16
48527;BME280;34317;51.660;5.824;2023-02-10T06:56:09;103595.31;;;5.07;59.34
48527;BME280;34317;51.660;5.824;2023-02-10T06:58:37;103600.63;;;5.10;59.16
48527;BME280;34317;51.660;5.824;2023-02-10T07:01:09;103605.97;;;5.13;59.40
48527;BME280;34317;51.660;5.824;2023-02-10T07:03:37;103609.59;;;5.18;59.33
48527;BME280;34317;51.660;5.824;2023-02-10T07:06:05;103611.41;;;5.22;59.21
48527;BME280;34317;51.660;5.824;2023-02-10T07:08:32;103610.59;;;5.25;59.09
48527;BME280;34317;51.660;5.824;2023-02-10T07:11:00;103620.31;;;5.29;59.30
48527;BME280;34317;51.660;5.824;2023-02-10T07:13:27;103615.97;;;5.31;59.53
48527;BME280;34317;51.660;5.824;2023-02-10T07:15:55;103621.31;;;5.34;59.63
48527;BME280;34317;51.660;5.824;2023-02-10T07:18:23;103625.72;;;5.37;59.25
48527;BME280;34317;51.660;5.824;2023-02-10T07:20:50;103623.19;;;5.40;59.62
48527;BME280;34317;51.660;5.824;2023-02-10T07:23:18;103613.59;;;5.42;59.41
48527;BME280;34317;51.660;5.824;2023-02-10T07:26:03;103625.94;;;5.46;59.54
48527;BME280;34317;51.660;5.824;2023-02-10T07:28:32;103634.72;;;5.48;59.61
48527;BME280;34317;51.660;5.824;2023-02-10T07:31:00;103630.44;;;5.52;59.11
48527;BME280;34317;51.660;5.824;2023-02-10T07:33:27;103634.88;;;5.54;59.64
48527;BME280;34317;51.660;5.824;2023-02-10T07:35:59;103633.16;;;5.56;59.62
48527;BME280;34317;51.660;5.824;2023-02-10T07:38:26;103635.00;;;5.60;59.53
48527;BME280;34317;51.660;5.824;2023-02-10T07:40:54;103622.78;;;5.62;59.43
48527;BME280;34317;51.660;5.824;2023-02-10T07:43:21;103629.03;;;5.68;59.65
48527;BME280;34317;51.660;5.824;2023-02-10T07:45:58;103634.31;;;5.71;59.76
48527;BME280;34317;51.660;5.824;2023-02-10T07:48:26;103631.84;;;5.77;59.83
48527;BME280;34317;51.660;5.824;2023-02-10T07:50:53;103631.88;;;5.80;59.77
48527;BME280;34317;51.660;5.824;2023-02-10T07:53:21;103632.81;;;5.83;59.77
48527;BME280;34317;51.660;5.824;2023-02-10T07:55:48;103634.66;;;5.86;59.73
48527;BME280;34317;51.660;5.824;2023-02-10T07:58:16;103632.94;;;5.88;60.03
48527;BME280;34317;51.660;5.824;2023-02-10T08:00:44;103639.16;;;5.93;60.12
48527;BME280;34317;51.660;5.824;2023-02-10T08:03:13;103636.66;;;5.98;60.26
48527;BME280;34317;51.660;5.824;2023-02-10T08:05:41;103635.88;;;6.03;60.31
48527;BME280;34317;51.660;5.824;2023-02-10T08:08:09;103634.22;;;6.07;60.13
48527;BME280;34317;51.660;5.824;2023-02-10T08:10:41;103645.69;;;6.11;59.87
48527;BME280;34317;51.660;5.824;2023-02-10T08:13:09;103655.41;;;6.15;60.07
48527;BME280;34317;51.660;5.824;2023-02-10T08:15:36;103654.53;;;6.16;60.21
48527;BME280;34317;51.660;5.824;2023-02-10T08:18:03;103657.22;;;6.19;60.37
48527;BME280;34317;51.660;5.824;2023-02-10T08:20:30;103660.78;;;6.21;60.31
48527;BME280;34317;51.660;5.824;2023-02-10T08:22:59;103666.09;;;6.24;60.15
48527;BME280;34317;51.660;5.824;2023-02-10T08:25:27;103666.13;;;6.27;60.11
48527;BME280;34317;51.660;5.824;2023-02-10T08:27:54;103667.97;;;6.30;60.33
48527;BME280;34317;51.660;5.824;2023-02-10T08:30:22;103673.25;;;6.31;60.35
48527;BME280;34317;51.660;5.824;2023-02-10T08:32:49;103676.84;;;6.36;60.33
48527;BME280;34317;51.660;5.824;2023-02-10T08:35:17;103685.66;;;6.38;60.36
48527;BME280;34317;51.660;5.824;2023-02-10T08:37:44;103687.50;;;6.42;60.31
48527;BME280;34317;51.660;5.824;2023-02-10T08:40:11;103688.44;;;6.46;60.10
48527;BME280;34317;51.660;5.824;2023-02-10T08:42:39;103691.09;;;6.48;60.34
48527;BME280;34317;51.660;5.824;2023-02-10T08:45:06;103694.63;;;6.50;60.21
48527;BME280;34317;51.660;5.824;2023-02-10T08:47:34;103693.78;;;6.51;60.32
48527;BME280;34317;51.660;5.824;2023-02-10T08:50:02;103703.47;;;6.52;60.11
48527;BME280;34317;51.660;5.824;2023-02-10T08:52:29;103685.03;;;6.53;60.24
48527;BME280;34317;51.660;5.824;2023-02-10T08:54:57;103677.19;;;6.55;60.30
48527;BME280;34317;51.660;5.824;2023-02-10T08:57:26;103670.19;;;6.57;59.93
48527;BME280;34317;51.660;5.824;2023-02-10T08:59:54;103673.72;;;6.59;60.13
48527;BME280;34317;51.660;5.824;2023-02-10T09:02:21;103668.53;;;6.62;59.90
48527;BME280;34317;51.660;5.824;2023-02-10T09:04:48;103670.34;;;6.66;60.50
48527;BME280;34317;51.660;5.824;2023-02-10T09:07:30;103673.94;;;6.71;60.39
48527;BME280;34317;51.660;5.824;2023-02-10T09:09:57;103675.84;;;6.78;60.20
48527;BME280;34317;51.660;5.824;2023-02-10T09:12:24;103671.56;;;6.87;60.15
48527;BME280;34317;51.660;5.824;2023-02-10T09:14:51;103671.63;;;6.90;60.33
48527;BME280;34317;51.660;5.824;2023-02-10T09:17:18;103670.81;;;6.94;60.06
48527;BME280;34317;51.660;5.824;2023-02-10T09:19:46;103667.28;;;6.95;60.35
48527;BME280;34317;51.660;5.824;2023-02-10T09:22:13;103681.44;;;7.00;60.25
48527;BME280;34317;51.660;5.824;2023-02-10T09:24:40;103676.25;;;7.06;60.18
48527;BME280;34317;51.660;5.824;2023-02-10T09:27:15;103670.19;;;7.12;60.24
48527;BME280;34317;51.660;5.824;2023-02-10T09:29:42;103671.19;;;7.18;60.42
48527;BME280;34317;51.660;5.824;2023-02-10T09:32:10;103679.13;;;7.23;60.36
48527;BME280;34317;51.660;5.824;2023-02-10T09:34:37;103679.19;;;7.26;60.21
48527;BME280;34317;51.660;5.824;2023-02-10T09:37:08;103675.69;;;7.29;60.21
48527;BME280;34317;51.660;5.824;2023-02-10T09:39:35;103681.94;;;7.34;60.25
48527;BME280;34317;51.660;5.824;2023-02-10T09:42:25;103687.28;;;7.37;60.46
48527;BME280;34317;51.660;5.824;2023-02-10T09:45:11;103682.91;;;7.42;60.32
48527;BME280;34317;51.660;5.824;2023-02-10T09:48:00;103676.84;;;7.46;60.58
48527;BME280;34317;51.660;5.824;2023-02-10T09:53:21;103683.94;;;7.53;60.07
48527;BME280;34317;51.660;5.824;2023-02-10T09:55:54;103674.34;;;7.57;60.23
48527;BME280;34317;51.660;5.824;2023-02-10T09:58:35;103680.53;;;7.60;60.19
48527;BME280;34317;51.660;5.824;2023-02-10T10:03:43;103680.66;;;7.67;59.80
48527;BME280;34317;51.660;5.824;2023-02-10T10:06:37;103685.94;;;7.70;59.98
48527;BME280;34317;51.660;5.824;2023-02-10T10:14:22;103693.94;;;7.74;59.86
48527;BME280;34317;51.660;5.824;2023-02-10T10:28:24;103686.34;;;8.01;59.92
48527;BME280;34317;51.660;5.824;2023-02-10T10:30:54;103684.66;;;8.09;59.85
48527;BME280;34317;51.660;5.824;2023-02-10T10:33:33;103684.75;;;8.18;60.06
48527;BME280;34317;51.660;5.824;2023-02-10T10:36:03;103684.84;;;8.27;59.82
48527;BME280;34317;51.660;5.824;2023-02-10T10:38:34;103684.94;;;8.35;60.12
48527;BME280;34317;51.660;5.824;2023-02-10T10:41:11;103679.81;;;8.46;59.97
48527;BME280;34317;51.660;5.824;2023-02-10T10:43:48;103680.72;;;8.52;59.97
48527;BME280;34317;51.660;5.824;2023-02-10T10:48:46;103674.69;;;8.67;59.71
48527;BME280;34317;51.660;5.824;2023-02-10T10:51:13;103672.13;;;8.76;59.92
48527;BME280;34317;51.660;5.824;2023-02-10T10:53:47;103674.84;;;8.86;59.44
48527;BME280;34317;51.660;5.824;2023-02-10T10:58:51;103667.97;;;9.06;59.36
48527;BME280;34317;51.660;5.824;2023-02-10T11:01:39;103661.84;;;9.16;59.14
48527;BME280;34317;51.660;5.824;2023-02-10T11:04:11;103655.75;;;9.27;58.83
48527;BME280;34317;51.660;5.824;2023-02-10T11:06:41;103655.78;;;9.36;58.92
48527;BME280;34317;51.660;5.824;2023-02-10T11:12:17;103652.34;;;9.59;58.87
48527;BME280;34317;51.660;5.824;2023-02-10T11:14:48;103648.88;;;9.69;58.72
48527;BME280;34317;51.660;5.824;2023-02-10T11:17:30;103647.16;;;9.77;58.43
48527;BME280;34317;51.660;5.824;2023-02-10T11:20:01;103638.34;;;9.84;58.26
48527;BME280;34317;51.660;5.824;2023-02-10T11:22:28;103643.66;;;9.90;58.24
48527;BME280;34317;51.660;5.824;2023-02-10T11:25:02;103633.09;;;10.00;57.98
48527;BME280;34317;51.660;5.824;2023-02-10T11:27:33;103647.25;;;10.11;57.76
48527;BME280;34317;51.660;5.824;2023-02-10T11:30:01;103634.91;;;10.22;57.66
48527;BME280;34317;51.660;5.824;2023-02-10T11:32:32;103643.78;;;10.33;57.78
48527;BME280;34317;51.660;5.824;2023-02-10T11:35:02;103633.19;;;10.43;57.52
48527;BME280;34317;51.660;5.824;2023-02-10T11:37:33;103630.53;;;10.52;57.30
48527;BME280;34317;51.660;5.824;2023-02-10T11:40:15;103628.75;;;10.60;57.06
48527;BME280;34317;51.660;5.824;2023-02-10T11:42:47;103627.91;;;10.70;57.13
48527;BME280;34317;51.660;5.824;2023-02-10T11:45:18;103621.69;;;10.79;56.88
48527;BME280;34317;51.660;5.824;2023-02-10T11:47:46;103615.50;;;10.88;56.88
48527;BME280;34317;51.660;5.824;2023-02-10T11:50:31;103616.34;;;10.96;56.48
48527;BME280;34317;51.660;5.824;2023-02-10T11:52:59;103610.16;;;11.03;56.31
48527;BME280;34317;51.660;5.824;2023-02-10T11:55:39;103609.25;;;11.12;56.12
48527;BME280;34317;51.660;5.824;2023-02-10T11:58:26;103606.56;;;11.20;56.04
48527;BME280;34317;51.660;5.824;2023-02-10T12:04:24;103599.44;;;11.37;55.75
48527;BME280;34317;51.660;5.824;2023-02-10T12:07:15;103599.41;;;11.45;55.42
48527;BME280;34317;51.660;5.824;2023-02-10T12:19:08;103590.38;;;11.78;54.94
48527;BME280;34317;51.660;5.824;2023-02-10T12:24:32;103586.78;;;11.92;54.20
48527;BME280;34317;51.660;5.824;2023-02-10T12:32:48;103584.94;;;12.06;53.62
48527;BME280;34317;51.660;5.824;2023-02-10T12:35:42;103588.47;;;12.08;53.42
48527;BME280;34317;51.660;5.824;2023-02-10T12:42:13;103583.09;;;12.14;53.04
48527;BME280;34317;51.660;5.824;2023-02-10T12:45:03;103584.88;;;12.15;52.93
48527;BME280;34317;51.660;5.824;2023-02-10T12:53:12;103572.47;;;12.17;52.44
48527;BME280;34317;51.660;5.824;2023-02-10T12:55:59;103575.97;;;12.19;52.34
48527;BME280;34317;51.660;5.824;2023-02-10T12:58:33;103574.19;;;12.21;52.25
48527;BME280;34317;51.660;5.824;2023-02-10T13:01:25;103566.16;;;12.26;52.40
48527;BME280;34317;51.660;5.824;2023-02-10T13:04:04;103567.03;;;12.30;52.08
48527;BME280;34317;51.660;5.824;2023-02-10T13:06:41;103557.25;;;12.33;52.07
48527;BME280;34317;51.660;5.824;2023-02-10T13:09:17;103557.19;;;12.39;52.09
48527;BME280;34317;51.660;5.824;2023-02-10T13:14:26;103549.13;;;12.50;52.21
48527;BME280;34317;51.660;5.824;2023-02-10T13:16:56;103552.66;;;12.52;52.15
48527;BME280;34317;51.660;5.824;2023-02-10T13:25:09;103527.88;;;12.50;51.83
48527;BME280;34317;51.660;5.824;2023-02-10T13:27:48;103521.69;;;12.48;51.83
48527;BME280;34317;51.660;5.824;2023-02-10T13:30:45;103519.91;;;12.49;52.03
48527;BME280;34317;51.660;5.824;2023-02-10T13:33:43;103526.06;;;12.52;51.96
48527;BME280;34317;51.660;5.824;2023-02-10T13:36:21;103526.91;;;12.59;52.08
48527;BME280;34317;51.660;5.824;2023-02-10T13:39:03;103527.69;;;12.65;52.10
48527;BME280;34317;51.660;5.824;2023-02-10T13:41:35;103529.41;;;12.73;51.95
48527;BME280;34317;51.660;5.824;2023-02-10T13:46:52;103531.06;;;12.83;51.86
48527;BME280;34317;51.660;5.824;2023-02-10T13:49:22;103523.06;;;12.84;51.57
48527;BME280;34317;51.660;5.824;2023-02-10T13:52:11;103516.91;;;12.81;51.44
48527;BME280;34317;51.660;5.824;2023-02-10T13:54:39;103516.00;;;12.80;51.49
48527;BME280;34317;51.660;5.824;2023-02-10T13:57:23;103518.69;;;12.79;51.53
48527;BME280;34317;51.660;5.824;2023-02-10T13:59:51;103511.59;;;12.81;51.42
48527;BME280;34317;51.660;5.824;2023-02-10T14:02:20;103505.38;;;12.82;51.40
48527;BME280;34317;51.660;5.824;2023-02-10T14:04:53;103500.97;;;12.81;51.23
48527;BME280;34317;51.660;5.824;2023-02-10T14:10:27;103495.69;;;12.75;50.96
48527;BME280;34317;51.660;5.824;2023-02-10T14:12:58;103492.16;;;12.73;51.00
48527;BME280;34317;51.660;5.824;2023-02-10T14:15:30;103486.00;;;12.71;51.07
48527;BME280;34317;51.660;5.824;2023-02-10T14:18:03;103493.97;;;12.71;51.02
48527;BME280;34317;51.660;5.824;2023-02-10T14:20:36;103489.50;;;12.73;51.01
48527;BME280;34317;51.660;5.824;2023-02-10T14:23:05;103479.72;;;12.75;51.06
48527;BME280;34317;51.660;5.824;2023-02-10T14:25:38;103481.50;;;12.76;51.06
48527;BME280;34317;51.660;5.824;2023-02-10T14:28:18;103481.50;;;12.76;50.97
48527;BME280;34317;51.660;5.824;2023-02-10T14:30:51;103481.50;;;12.76;50.82
48527;BME280;34317;51.660;5.824;2023-02-10T14:33:31;103481.50;;;12.76;50.84
48527;BME280;34317;51.660;5.824;2023-02-10T14:36:02;103472.63;;;12.77;50.59
48527;BME280;34317;51.660;5.824;2023-02-10T14:38:33;103476.19;;;12.76;50.70
48527;BME280;34317;51.660;5.824;2023-02-10T14:41:02;103474.38;;;12.78;51.10
48527;BME280;34317;51.660;5.824;2023-02-10T14:43:47;103480.56;;;12.80;50.87
48527;BME280;34317;51.660;5.824;2023-02-10T14:46:26;103478.78;;;12.82;50.77
48527;BME280;34317;51.660;5.824;2023-02-10T14:49:08;103482.28;;;12.82;50.65
48527;BME280;34317;51.660;5.824;2023-02-10T14:51:42;103483.22;;;12.83;50.77
48527;BME280;34317;51.660;5.824;2023-02-10T14:54:18;103480.56;;;12.80;50.62
48527;BME280;34317;51.660;5.824;2023-02-10T14:56:58;103477.91;;;12.80;50.59
48527;BME280;34317;51.660;5.824;2023-02-10T14:59:31;103481.50;;;12.76;50.47